Flight Track Log - Related Links

Times and Time Zones

All times are in EDT time to prevent confusion due to time zone crossing. See the FFT791 flight status page for this flight to view local times or setup timezone preferences in your user account.

Time Position Orientation Groundspeed Altitude Reporting Facility
EDT Latitude Longitude Course Direction KTS MPH feet Rate Location/Type
Sun 11:37:55 AM 39.8333 -104.7500 308° West 181 208 6,500  Level Denver TRACON
Sun 11:38:40 AM 39.8561 -104.7875 308° West 193 222 7,200 1,358 Climbing Denver Center
Sun 11:39:41 AM 39.8817 -104.8831 289° West 272 313 8,900 2,195 Climbing Denver Center
Sun 11:40:43 AM 39.8942 -104.9864 279° West 289 333 11,700 2,806 Climbing Denver Center
Sun 11:41:45 AM 39.9072 -105.0989 279° West 292 336 14,700 1,935 Climbing Denver Center
Sun 11:42:47 AM 39.9203 -105.2128 279° West 321 369 15,700 1,645 Climbing Denver Center
Sun 11:43:49 AM 39.9372 -105.3508 279° West 355 409 18,100 1,742 Climbing Denver Center
Sun 11:44:51 AM 39.9514 -105.4800 278° West 361 415 19,300 1,355 Climbing Denver Center
Sun 11:45:53 AM 39.9678 -105.6169 279° West 381 438 20,900 1,676 Climbing Denver Center
Sun 11:47:07 AM 39.9728 -105.7978 272° West 410 472 23,100 1,632 Climbing Denver Center
Sun 11:48:09 AM 39.9736 -105.9425 270° West 399 459 24,600 1,306 Climbing Denver Center
Sun 11:49:11 AM 39.9836 -106.0961 275° West 420 483 25,800 1,258 Climbing Denver Center
Sun 11:50:13 AM 39.9931 -106.2511 275° West 429 494 27,200 1,210 Climbing Denver Center
Sun 11:51:15 AM 40.0250 -106.4006 286° West 434 499 28,300 1,113 Climbing Denver Center
Sun 11:52:17 AM 40.0958 -106.5631 300° West 432 497 29,500 1,016 Climbing Denver Center
Sun 11:53:19 AM 40.1533 -106.6969 299° West 440 506 30,400 1,258 Climbing Denver Center
Sun 11:54:21 AM 40.2169 -106.8422 300° West 442 509 32,100 1,355 Climbing Denver Center
Sun 11:55:23 AM 40.2764 -106.9853 299° West 435 501 33,200 927 Climbing Denver Center
Sun 11:56:24 AM 40.3414 -107.1356 300° West 426 490 34,000 390 Climbing Denver Center
Sun 11:57:26 AM 40.3953 -107.2636 299° West 420 483 34,000  Level Denver Center
Sun 11:58:28 AM 40.4608 -107.4203 299° West 436 502 34,000  Level Denver Center
Sun 11:59:30 AM 40.5167 -107.5558 298° West 441 507 34,000  Level Denver Center
Sun 12:00:32 PM 40.5739 -107.6908 299° West 442 509 34,000  Level Denver Center
Sun 12:01:34 PM 40.6397 -107.8486 299° West 441 507 34,000  Level Denver Center
Sun 12:02:35 PM 40.6958 -107.9842 299° West 443 510 34,000  Level Denver Center
Sun 12:03:38 PM 40.7586 -108.1372 298° West 440 506 34,000  Level Denver Center
Sun 12:04:40 PM 40.8239 -108.2958 299° West 441 507 34,000  Level Denver Center
Sun 12:05:42 PM 40.8778 -108.4306 298° West 435 501 34,000  Level Denver Center
Sun 12:06:05 PM 40.8967 -108.4781 298° West 440 506 34,000  Level Salt Lake Center
Sun 12:07:07 PM 40.9611 -108.6364 298° West 439 505 34,000  Level Salt Lake Center
Sun 12:08:09 PM 41.0156 -108.7717 298° West 434 499 34,000  Level Salt Lake Center
Sun 12:09:10 PM 41.0792 -108.9325 298° West 438 504 34,000  Level Salt Lake Center
Sun 12:10:12 PM 41.1344 -109.0689 298° West 437 503 34,000  Level Salt Lake Center
Sun 12:11:13 PM 41.1872 -109.2058 297° West 433 498 34,000  Level Salt Lake Center
Sun 12:12:15 PM 41.2503 -109.3658 298° West 433 498 34,000  Level Salt Lake Center
Sun 12:13:17 PM 41.3044 -109.5036 298° West 435 501 34,000  Level Salt Lake Center
Sun 12:14:18 PM 41.3667 -109.6619 298° West 431 496 34,000  Level Salt Lake Center
Sun 12:15:20 PM 41.4200 -109.8003 297° West 435 501 34,000  Level Salt Lake Center
Sun 12:16:22 PM 41.4728 -109.9350 298° West 429 494 34,000  Level Salt Lake Center
Sun 12:17:23 PM 41.5336 -110.0931 297° West 429 494 34,000  Level Salt Lake Center
Sun 12:18:25 PM 41.5861 -110.2294 297° West 431 496 34,000  Level Salt Lake Center
Sun 12:19:26 PM 41.6458 -110.3892 297° West 430 495 34,000  Level Salt Lake Center
Sun 12:20:28 PM 41.6989 -110.5278 297° West 435 501 34,000 242 Level Salt Lake Center
Sun 12:21:30 PM 41.7503 -110.6658 297° West 433 498 34,500 927 Climbing Salt Lake Center
Sun 12:22:31 PM 41.8117 -110.8261 297° West 433 498 35,900 732 Climbing Salt Lake Center
Sun 12:23:33 PM 41.8661 -110.9714 297° West 426 490 36,000 48 Climbing Salt Lake Center
Sun 12:24:35 PM 41.9181 -111.1142 296° West 428 493 36,000  Level Salt Lake Center
Sun 12:25:36 PM 41.9708 -111.2567 297° West 429 494 36,000 -49 Level Salt Lake Center
Sun 12:26:38 PM 42.0225 -111.3972 296° West 423 487 35,900  Descending Salt Lake Center
Sun 12:27:40 PM 42.0758 -111.5414 297° West 431 496 36,000 49 Climbing Salt Lake Center
Sun 12:28:41 PM 42.1375 -111.7119 296° West 425 489 36,000  Level Salt Lake Center
Sun 12:29:43 PM 42.1892 -111.8542 296° West 425 489 36,000  Level Salt Lake Center
Sun 12:30:45 PM 42.2411 -111.9958 296° West 424 488 36,000  Level Salt Lake Center
Sun 12:31:46 PM 42.2922 -112.1383 296° West 424 488 36,000  Level Salt Lake Center
Sun 12:32:48 PM 42.3436 -112.2806 296° West 424 488 36,000  Level Salt Lake Center
Sun 12:33:50 PM 42.3933 -112.4272 295° West 430 495 36,000  Level Salt Lake Center
Sun 12:34:51 PM 42.4475 -112.5689 297° West 426 490 36,000  Level Salt Lake Center
Sun 12:35:53 PM 42.5156 -112.7361 299° West 426 490 36,000  Level Salt Lake Center
Sun 12:36:54 PM 42.5711 -112.8781 298° West 427 491 36,000  Level Salt Lake Center
Sun 12:37:56 PM 42.6275 -113.0189 299° West 426 490 36,000  Level Salt Lake Center
Sun 12:38:58 PM 42.6831 -113.1594 298° West 425 489 36,000  Level Salt Lake Center
Sun 12:39:59 PM 42.7439 -113.3122 299° West 423 487 36,000  Level Salt Lake Center
Sun 12:41:01 PM 42.7958 -113.4464 298° West 419 482 36,000  Level Salt Lake Center
Sun 12:42:03 PM 42.8572 -113.6036 298° West 419 482 36,000  Level Salt Lake Center
Sun 12:43:04 PM 42.9086 -113.7372 298° West 416 479 36,000  Level Salt Lake Center
Sun 12:44:06 PM 42.9639 -113.8917 296° West 426 490 36,000  Level Salt Lake Center
Sun 12:45:07 PM 43.0178 -114.0331 298° West 422 486 36,000  Level Salt Lake Center
Sun 12:46:09 PM 43.0719 -114.1728 298° West 418 481 36,000  Level Salt Lake Center
Sun 12:47:10 PM 43.1311 -114.3197 299° West 420 483 36,000  Level Salt Lake Center
Sun 12:48:12 PM 43.1814 -114.4547 297° West 415 478 36,000  Level Salt Lake Center
Sun 12:49:14 PM 43.2397 -114.6122 297° West 415 478 36,000  Level Salt Lake Center
Sun 12:50:15 PM 43.2908 -114.7469 298° West 415 478 36,000  Level Salt Lake Center
Sun 12:51:17 PM 43.3497 -114.9064 297° West 418 481 36,000  Level Salt Lake Center
Sun 12:52:18 PM 43.4011 -115.0422 298° West 417 480 36,000  Level Salt Lake Center
Sun 12:53:19 PM 43.4506 -115.1789 297° West 417 480 36,000  Level Salt Lake Center
Sun 12:54:21 PM 43.5089 -115.3394 297° West 419 482 36,000  Level Salt Lake Center
Sun 12:55:22 PM 43.5592 -115.4761 297° West 417 480 36,000  Level Salt Lake Center
Sun 12:56:24 PM 43.6169 -115.6358 297° West 417 480 36,000  Level Salt Lake Center
Sun 12:57:25 PM 43.6661 -115.7742 296° West 420 483 36,000  Level Salt Lake Center
Sun 12:58:27 PM 43.7158 -115.9133 296° West 421 484 36,000  Level Salt Lake Center
Sun 12:59:28 PM 43.7731 -116.0767 296° West 421 484 36,000  Level Salt Lake Center
Sun 01:00:30 PM 43.8217 -116.2156 296° West 417 480 36,000  Level Salt Lake Center
Sun 01:01:32 PM 43.8803 -116.3783 297° West 419 482 36,000  Level Salt Lake Center
Sun 01:02:33 PM 43.9286 -116.5181 296° West 418 481 36,000  Level Salt Lake Center
Sun 01:03:35 PM 43.9769 -116.6569 296° West 417 480 36,000  Level Salt Lake Center
Sun 01:04:37 PM 44.0342 -116.8203 296° West 420 483 36,000  Level Salt Lake Center
Sun 01:05:38 PM 44.0819 -116.9608 295° West 421 484 36,000  Level Salt Lake Center
Sun 01:06:40 PM 44.1308 -117.1033 296° West 426 490 36,000  Level Salt Lake Center
Sun 01:07:41 PM 44.1881 -117.2678 296° West 424 488 36,000  Level Salt Lake Center
Sun 01:08:43 PM 44.2347 -117.4089 295° West 419 482 36,000  Level Salt Lake Center
Sun 01:09:44 PM 44.2897 -117.5728 295° West 416 479 36,000  Level Salt Lake Center
Sun 01:10:46 PM 44.3378 -117.7136 296° West 417 480 36,000  Level Salt Lake Center
Sun 01:11:48 PM 44.3836 -117.8533 295° West 413 475 36,000  Level Salt Lake Center
Sun 01:12:49 PM 44.4381 -118.0158 295° West 413 475 36,000  Level Salt Lake Center
Sun 01:13:51 PM 44.4842 -118.1561 295° West 413 475 36,000  Level Salt Lake Center
Sun 01:14:12 PM 44.5028 -118.2128 295° West 412 474 36,000  Level Seattle Center
Sun 01:15:12 PM 44.5492 -118.3572 294° West 408 470 36,000  Level Seattle Center
Sun 01:15:54 PM 44.5789 -118.4447 296° West 410 472 36,000  Level Salt Lake Center
Sun 01:16:56 PM 44.6250 -118.5886 294° West 407 468 36,000  Level Salt Lake Center
Sun 01:17:14 PM 44.6439 -118.6472 294° West 410 472 36,000  Level Seattle Center
Sun 01:18:15 PM 44.6903 -118.7903 295° West 406 467 36,000  Level Seattle Center
Sun 01:19:15 PM 44.7350 -118.9306 294° West 397 457 36,000  Level Seattle Center
Sun 01:20:16 PM 44.7819 -119.0753 295° West 399 459 36,000  Level Seattle Center
Sun 01:21:17 PM 44.8258 -119.2139 294° West 398 458 36,000  Level Seattle Center
Sun 01:22:18 PM 44.8700 -119.3544 294° West 395 455 36,000  Level Seattle Center
Sun 01:23:18 PM 44.9133 -119.4944 294° West 393 452 36,000 -298 Level Seattle Center
Sun 01:24:19 PM 44.9656 -119.6636 294° West 393 452 35,400 -1,131 Descending Seattle Center
Sun 01:25:20 PM 45.0092 -119.8025 294° West 394 453 33,700 -1,623 Descending Seattle Center
Sun 01:26:21 PM 45.0528 -119.9450 293° West 408 470 32,100 -1,279 Descending Seattle Center
Sun 01:27:22 PM 45.0978 -120.0925 293° West 416 479 31,100 -793 Descending Seattle Center
Sun 01:28:22 PM 45.1414 -120.2400 293° West 412 474 30,500 -545 Descending Seattle Center
Sun 01:29:23 PM 45.1861 -120.3886 293° West 411 473 30,000 -246 Descending Seattle Center
Sun 01:30:24 PM 45.2308 -120.5367 293° West 411 473 30,000 -885 Level Seattle Center
Sun 01:31:25 PM 45.2758 -120.6861 293° West 413 475 28,200 -2,033 Descending Seattle Center
Sun 01:32:25 PM 45.3178 -120.8297 293° West 397 457 25,900 -2,579 Descending Seattle Center
Sun 01:33:26 PM 45.3664 -120.9956 293° West 381 438 23,000 -2,459 Descending Seattle Center
Sun 01:34:27 PM 45.4069 -121.1297 293° West 371 427 20,900 -2,016 Descending Seattle Center
Sun 01:35:28 PM 45.4353 -121.2586 287° West 345 397 18,900 -2,400 Descending Seattle Center
Sun 01:35:52 PM 45.4431 -121.3172 281° West 331 381 17,500 -2,557 Descending Seattle Center
Sun 01:36:29 PM 45.4503 -121.3894 278° West 335 386 16,300 -1,778 Descending Seattle Center
Sun 01:36:46 PM 45.4581 -121.4283 286° West 332 382 15,900 -1,700 Descending Seattle Center
Sun 01:37:29 PM 45.4656 -121.5169 277° West 328 377 14,600 -1,707 Descending Seattle Center
Sun 01:38:42 PM 45.4847 -121.6675 280° West 311 358 12,600 -1,672 Descending Seattle Center
Sun 01:39:31 PM 45.4944 -121.7611 278° West 311 358 11,200 -1,255 Descending Seattle Center
Sun 01:40:32 PM 45.4731 -121.8639 254° West 271 312 10,300 -1,180 Descending Seattle Center
Sun 01:41:33 PM 45.4489 -121.9597 250° West 245 282 8,800 -1,462 Descending Seattle Center
Sun 01:41:50 PM 45.4411 -121.9883 249° West 227 261 8,400 -1,180 Descending Seattle Center
Sun 01:42:34 PM 45.4308 -122.0381 254° West 217 250 7,600 -1,000 Descending Seattle Center
Sun 01:42:50 PM 45.4231 -122.0578 241° Southwest 186 214 7,400 -787 Descending Seattle Center
Sun 01:43:35 PM 45.4122 -122.1058 252° West 191 220 6,800 -787 Descending Seattle Center
Sun 01:43:51 PM 45.4144 -122.1322 277° West 197 227 6,600 -787 Descending Seattle Center
Sun 01:44:36 PM 45.4319 -122.1781 299° West 196 226 6,000 -906 Descending Seattle Center
Sun 01:45:37 PM 45.4558 -122.2397 299° West 185 213 5,000 -836 Descending Seattle Center
Sun 01:46:38 PM 45.4794 -122.2997 299° West 177 204 4,300 -836 Descending Seattle Center
Sun 01:47:39 PM 45.5017 -122.3567 299° West 170 196 3,300 -1,024 Descending Seattle Center
Sun 01:48:00 PM 45.5119 -122.3847 298° West 164 189 2,900 -900 Descending Seattle Center
Sun 01:48:39 PM 45.5228 -122.4119 300° West 163 188 2,400 -889 Descending Seattle Center
Sun 01:48:54 PM 45.5308 -122.4356 296° West 161 185 2,100 -984 Descending Seattle Center
Sun 01:49:40 PM 45.5494 -122.4792 301° West 162 186 1,400 -783 Descending Seattle Center
Sun 01:50:49 PM 45.5708 -122.5364 298° West 146 168 600 -443 Descending Seattle Center
Sun 01:51:42 PM 45.5872 -122.5756 301° West 155 178 500 -113 Descending Seattle Center

Login

Don't have an account? Register now (free) for customized features, flight alerts, and more!